sensor_id;sensor_type;location;lat;lon;timestamp;pressure;altitude;pressure_sealevel;temperature;humidity
59487;BME280;45298;54.918;73.504;2022-09-09T00:04:32;100489.41;;;6.80;84.60
59487;BME280;45298;54.918;73.504;2022-09-09T00:15:21;100473.69;;;6.77;84.45
59487;BME280;45298;54.918;73.504;2022-09-09T00:18:22;100504.63;;;6.95;83.89
59487;BME280;45298;54.918;73.504;2022-09-09T00:21:13;100485.84;;;6.81;84.38
59487;BME280;45298;54.918;73.504;2022-09-09T00:23:55;100515.00;;;7.00;83.98
59487;BME280;45298;54.918;73.504;2022-09-09T00:26:31;100528.19;;;7.00;84.31
59487;BME280;45298;54.918;73.504;2022-09-09T00:31:40;100516.09;;;6.94;84.24
59487;BME280;45298;54.918;73.504;2022-09-09T00:34:16;100518.91;;;6.90;84.41
59487;BME280;45298;54.918;73.504;2022-09-09T00:36:48;100512.81;;;6.88;84.30
59487;BME280;45298;54.918;73.504;2022-09-09T00:39:37;100520.69;;;6.89;84.13
59487;BME280;45298;54.918;73.504;2022-09-09T00:42:23;100505.19;;;6.82;84.33
59487;BME280;45298;54.918;73.504;2022-09-09T00:47:49;100502.84;;;6.74;83.82
59487;BME280;45298;54.918;73.504;2022-09-09T00:56:14;100510.88;;;6.71;83.29
59487;BME280;45298;54.918;73.504;2022-09-09T00:58:57;100483.50;;;6.51;82.93
59487;BME280;45298;54.918;73.504;2022-09-09T01:01:31;100507.75;;;6.59;82.69
59487;BME280;45298;54.918;73.504;2022-09-09T01:04:00;100497.63;;;6.48;83.17
59487;BME280;45298;54.918;73.504;2022-09-09T01:06:30;100488.38;;;6.38;83.58
59487;BME280;45298;54.918;73.504;2022-09-09T01:09:16;100473.25;;;6.19;83.17
59487;BME280;45298;54.918;73.504;2022-09-09T01:12:01;100494.72;;;6.32;83.23
59487;BME280;45298;54.918;73.504;2022-09-09T01:17:30;100484.06;;;6.12;83.27
59487;BME280;45298;54.918;73.504;2022-09-09T01:23:38;100506.56;;;6.20;83.07
59487;BME280;45298;54.918;73.504;2022-09-09T01:26:35;100511.78;;;6.22;84.14
59487;BME280;45298;54.918;73.504;2022-09-09T01:29:15;100493.44;;;6.19;83.95
59487;BME280;45298;54.918;73.504;2022-09-09T01:31:55;100506.41;;;6.25;83.65
59487;BME280;45298;54.918;73.504;2022-09-09T01:34:35;100489.09;;;6.18;83.97
59487;BME280;45298;54.918;73.504;2022-09-09T01:37:07;100498.50;;;6.25;83.88
59487;BME280;45298;54.918;73.504;2022-09-09T01:39:41;100506.34;;;6.27;83.82
59487;BME280;45298;54.918;73.504;2022-09-09T01:42:16;100495.81;;;6.27;84.20
59487;BME280;45298;54.918;73.504;2022-09-09T01:44:45;100506.06;;;6.34;83.95
59487;BME280;45298;54.918;73.504;2022-09-09T01:47:15;100498.16;;;6.34;84.07
59487;BME280;45298;54.918;73.504;2022-09-09T01:50:02;100516.03;;;6.50;84.68
59487;BME280;45298;54.918;73.504;2022-09-09T01:52:33;100510.47;;;6.58;84.58
59487;BME280;45298;54.918;73.504;2022-09-09T01:55:08;100516.91;;;7.19;84.09
59487;BME280;45298;54.918;73.504;2022-09-09T01:57:51;100515.34;;;8.96;81.28
59487;BME280;45298;54.918;73.504;2022-09-09T02:00:24;100503.59;;;10.42;74.87
59487;BME280;45298;54.918;73.504;2022-09-09T02:03:34;100532.06;;;11.82;71.57
59487;BME280;45298;54.918;73.504;2022-09-09T02:06:20;100530.31;;;12.83;67.06
59487;BME280;45298;54.918;73.504;2022-09-09T02:09:02;100524.56;;;13.59;64.14
59487;BME280;45298;54.918;73.504;2022-09-09T02:11:33;100524.94;;;14.58;63.65
59487;BME280;45298;54.918;73.504;2022-09-09T02:14:12;100532.16;;;14.81;60.95
59487;BME280;45298;54.918;73.504;2022-09-09T02:16:56;100517.09;;;15.18;59.26
59487;BME280;45298;54.918;73.504;2022-09-09T02:19:45;100501.06;;;15.53;57.31
59487;BME280;45298;54.918;73.504;2022-09-09T02:22:27;100513.31;;;16.16;56.70
59487;BME280;45298;54.918;73.504;2022-09-09T02:24:59;100515.38;;;16.58;54.35
59487;BME280;45298;54.918;73.504;2022-09-09T02:27:29;100512.28;;;16.97;52.73
59487;BME280;45298;54.918;73.504;2022-09-09T02:29:59;100510.53;;;17.18;52.09
59487;BME280;45298;54.918;73.504;2022-09-09T02:32:45;100517.50;;;17.42;51.08
59487;BME280;45298;54.918;73.504;2022-09-09T02:35:19;100524.16;;;17.59;50.98
59487;BME280;45298;54.918;73.504;2022-09-09T02:37:51;100518.97;;;17.46;50.02
59487;BME280;45298;54.918;73.504;2022-09-09T02:40:22;100513.28;;;16.61;52.03
59487;BME280;45298;54.918;73.504;2022-09-09T02:42:58;100503.81;;;15.76;53.92
59487;BME280;45298;54.918;73.504;2022-09-09T02:45:42;100511.06;;;15.27;54.59
59487;BME280;45298;54.918;73.504;2022-09-09T02:48:20;100509.88;;;15.31;55.29
59487;BME280;45298;54.918;73.504;2022-09-09T02:53:48;100515.63;;;15.74;55.74
59487;BME280;45298;54.918;73.504;2022-09-09T02:56:21;100517.38;;;15.86;54.89
59487;BME280;45298;54.918;73.504;2022-09-09T02:58:55;100502.25;;;15.74;53.90
59487;BME280;45298;54.918;73.504;2022-09-09T03:01:25;100515.31;;;15.54;55.23
59487;BME280;45298;54.918;73.504;2022-09-09T03:03:54;100508.22;;;14.93;55.39
59487;BME280;45298;54.918;73.504;2022-09-09T03:06:23;100507.66;;;14.50;56.40
59487;BME280;45298;54.918;73.504;2022-09-09T03:09:01;100492.53;;;14.12;57.25
59487;BME280;45298;54.918;73.504;2022-09-09T03:11:31;100480.16;;;13.98;57.43
59487;BME280;45298;54.918;73.504;2022-09-09T03:14:01;100514.41;;;14.17;58.55
59487;BME280;45298;54.918;73.504;2022-09-09T03:16:31;100521.31;;;14.07;58.00
59487;BME280;45298;54.918;73.504;2022-09-09T03:19:01;100517.69;;;13.82;57.75
59487;BME280;45298;54.918;73.504;2022-09-09T03:21:31;100504.34;;;13.69;58.20
59487;BME280;45298;54.918;73.504;2022-09-09T03:24:00;100458.03;;;13.44;58.42
59487;BME280;45298;54.918;73.504;2022-09-09T03:26:31;100510.22;;;13.87;58.17
59487;BME280;45298;54.918;73.504;2022-09-09T03:29:00;100497.75;;;13.88;57.72
59487;BME280;45298;54.918;73.504;2022-09-09T03:31:30;100511.31;;;13.98;56.94
59487;BME280;45298;54.918;73.504;2022-09-09T03:33:59;100453.38;;;13.61;57.54
59487;BME280;45298;54.918;73.504;2022-09-09T03:36:32;100508.53;;;14.12;57.16
59487;BME280;45298;54.918;73.504;2022-09-09T03:39:01;100508.41;;;14.27;57.80
59487;BME280;45298;54.918;73.504;2022-09-09T03:41:31;100505.94;;;14.36;58.89
59487;BME280;45298;54.918;73.504;2022-09-09T03:44:02;100512.84;;;14.65;56.92
59487;BME280;45298;54.918;73.504;2022-09-09T03:46:36;100483.81;;;14.60;56.91
59487;BME280;45298;54.918;73.504;2022-09-09T03:49:06;100488.19;;;14.74;55.97
59487;BME280;45298;54.918;73.504;2022-09-09T03:51:35;100499.16;;;14.83;54.51
59487;BME280;45298;54.918;73.504;2022-09-09T03:54:06;100511.84;;;14.92;55.72
59487;BME280;45298;54.918;73.504;2022-09-09T03:56:41;100512.88;;;15.02;55.42
59487;BME280;45298;54.918;73.504;2022-09-09T03:59:12;100509.69;;;14.97;56.00
59487;BME280;45298;54.918;73.504;2022-09-09T04:01:42;100497.72;;;15.03;55.76
59487;BME280;45298;54.918;73.504;2022-09-09T04:04:11;100503.00;;;15.16;55.51
59487;BME280;45298;54.918;73.504;2022-09-09T04:06:40;100505.25;;;15.33;55.71
59487;BME280;45298;54.918;73.504;2022-09-09T04:09:09;100519.47;;;15.58;55.45
59487;BME280;45298;54.918;73.504;2022-09-09T04:11:38;100503.41;;;15.58;54.09
59487;BME280;45298;54.918;73.504;2022-09-09T04:14:07;100493.19;;;15.52;54.20
59487;BME280;45298;54.918;73.504;2022-09-09T04:16:37;100505.38;;;15.67;54.89
59487;BME280;45298;54.918;73.504;2022-09-09T04:19:07;100491.75;;;15.59;55.90
59487;BME280;45298;54.918;73.504;2022-09-09T04:21:36;100481.78;;;15.61;54.81
59487;BME280;45298;54.918;73.504;2022-09-09T04:24:08;100490.31;;;15.66;53.78
59487;BME280;45298;54.918;73.504;2022-09-09T04:26:38;100523.47;;;15.88;54.36
59487;BME280;45298;54.918;73.504;2022-09-09T04:29:07;100515.44;;;15.88;53.13
59487;BME280;45298;54.918;73.504;2022-09-09T04:31:39;100507.31;;;16.01;53.47
59487;BME280;45298;54.918;73.504;2022-09-09T04:34:10;100505.97;;;16.07;52.32
59487;BME280;45298;54.918;73.504;2022-09-09T04:36:39;100500.91;;;16.15;52.22
59487;BME280;45298;54.918;73.504;2022-09-09T04:39:08;100510.97;;;16.11;50.26
59487;BME280;45298;54.918;73.504;2022-09-09T04:41:38;100513.88;;;16.08;49.67
59487;BME280;45298;54.918;73.504;2022-09-09T04:44:09;100499.88;;;16.05;49.51
59487;BME280;45298;54.918;73.504;2022-09-09T04:46:38;100519.84;;;16.23;51.12
59487;BME280;45298;54.918;73.504;2022-09-09T04:49:07;100506.97;;;16.28;52.77
59487;BME280;45298;54.918;73.504;2022-09-09T04:51:42;100511.81;;;16.57;49.94
59487;BME280;45298;54.918;73.504;2022-09-09T04:54:12;100487.03;;;16.55;49.44
59487;BME280;45298;54.918;73.504;2022-09-09T04:56:43;100504.28;;;16.74;49.17
59487;BME280;45298;54.918;73.504;2022-09-09T04:59:12;100502.78;;;16.81;47.93
59487;BME280;45298;54.918;73.504;2022-09-09T05:01:45;100495.75;;;16.69;47.11
59487;BME280;45298;54.918;73.504;2022-09-09T05:04:14;100503.91;;;16.79;47.68
59487;BME280;45298;54.918;73.504;2022-09-09T05:06:44;100488.22;;;16.74;47.02
59487;BME280;45298;54.918;73.504;2022-09-09T05:09:14;100481.25;;;16.83;46.88
59487;BME280;45298;54.918;73.504;2022-09-09T05:11:44;100479.38;;;17.06;46.59
59487;BME280;45298;54.918;73.504;2022-09-09T05:14:23;100478.78;;;16.91;47.47
59487;BME280;45298;54.918;73.504;2022-09-09T05:16:52;100488.06;;;16.75;48.50
59487;BME280;45298;54.918;73.504;2022-09-09T05:19:22;100481.28;;;16.60;47.68
59487;BME280;45298;54.918;73.504;2022-09-09T05:21:52;100486.53;;;16.50;48.14
59487;BME280;45298;54.918;73.504;2022-09-09T05:24:27;100483.72;;;16.17;48.27
59487;BME280;45298;54.918;73.504;2022-09-09T05:26:58;100462.81;;;15.89;47.54
59487;BME280;45298;54.918;73.504;2022-09-09T05:29:28;100481.41;;;15.90;47.54
59487;BME280;45298;54.918;73.504;2022-09-09T05:31:57;100478.69;;;15.79;48.18
59487;BME280;45298;54.918;73.504;2022-09-09T05:34:26;100485.56;;;15.70;48.42
59487;BME280;45298;54.918;73.504;2022-09-09T05:36:56;100452.13;;;15.53;49.16
59487;BME280;45298;54.918;73.504;2022-09-09T05:39:26;100476.19;;;15.53;49.21
59487;BME280;45298;54.918;73.504;2022-09-09T05:41:55;100462.06;;;15.39;49.70
59487;BME280;45298;54.918;73.504;2022-09-09T05:44:23;100453.97;;;15.28;48.74
59487;BME280;45298;54.918;73.504;2022-09-09T05:46:55;100478.09;;;15.39;50.25
59487;BME280;45298;54.918;73.504;2022-09-09T05:49:26;100457.16;;;15.33;50.66
59487;BME280;45298;54.918;73.504;2022-09-09T05:51:55;100445.00;;;15.40;52.05
59487;BME280;45298;54.918;73.504;2022-09-09T05:54:24;100405.88;;;15.28;50.82
59487;BME280;45298;54.918;73.504;2022-09-09T05:56:54;100453.59;;;15.80;49.30
59487;BME280;45298;54.918;73.504;2022-09-09T05:59:23;100439.81;;;15.86;50.06
59487;BME280;45298;54.918;73.504;2022-09-09T06:01:54;100438.72;;;15.89;48.53
59487;BME280;45298;54.918;73.504;2022-09-09T06:04:32;100438.34;;;16.05;49.08
59487;BME280;45298;54.918;73.504;2022-09-09T06:07:02;100407.34;;;15.91;47.11
59487;BME280;45298;54.918;73.504;2022-09-09T06:09:31;100441.16;;;16.26;48.06
59487;BME280;45298;54.918;73.504;2022-09-09T06:11:59;100442.38;;;16.44;47.62
59487;BME280;45298;54.918;73.504;2022-09-09T06:14:30;100428.94;;;16.56;46.64
59487;BME280;45298;54.918;73.504;2022-09-09T06:17:02;100449.00;;;16.61;46.73
59487;BME280;45298;54.918;73.504;2022-09-09T06:19:31;100471.91;;;16.66;45.32
59487;BME280;45298;54.918;73.504;2022-09-09T06:22:00;100456.59;;;16.56;47.55
59487;BME280;45298;54.918;73.504;2022-09-09T06:24:32;100420.09;;;16.33;47.35
59487;BME280;45298;54.918;73.504;2022-09-09T06:27:02;100329.03;;;15.77;47.34
59487;BME280;45298;54.918;73.504;2022-09-09T06:29:34;100424.34;;;16.35;46.59
59487;BME280;45298;54.918;73.504;2022-09-09T06:32:03;100417.91;;;16.26;45.18
59487;BME280;45298;54.918;73.504;2022-09-09T06:34:32;100409.66;;;16.29;45.12
59487;BME280;45298;54.918;73.504;2022-09-09T06:37:00;100399.16;;;16.38;47.65
59487;BME280;45298;54.918;73.504;2022-09-09T06:39:37;100399.09;;;16.60;46.29
59487;BME280;45298;54.918;73.504;2022-09-09T06:42:06;100394.47;;;16.74;45.40
59487;BME280;45298;54.918;73.504;2022-09-09T06:44:55;100394.03;;;17.01;45.63
59487;BME280;45298;54.918;73.504;2022-09-09T06:47:38;100378.00;;;17.32;44.75
59487;BME280;45298;54.918;73.504;2022-09-09T06:50:08;100363.22;;;17.59;43.85
59487;BME280;45298;54.918;73.504;2022-09-09T06:52:37;100362.28;;;18.01;42.15
59487;BME280;45298;54.918;73.504;2022-09-09T06:55:08;100382.69;;;18.14;42.89
59487;BME280;45298;54.918;73.504;2022-09-09T06:57:36;100363.66;;;18.36;43.74
59487;BME280;45298;54.918;73.504;2022-09-09T07:00:11;100358.31;;;18.66;41.88
59487;BME280;45298;54.918;73.504;2022-09-09T07:02:42;100355.94;;;18.53;40.82
59487;BME280;45298;54.918;73.504;2022-09-09T07:05:12;100362.84;;;18.46;41.22
59487;BME280;45298;54.918;73.504;2022-09-09T07:07:42;100356.16;;;18.20;40.82
59487;BME280;45298;54.918;73.504;2022-09-09T07:10:12;100342.16;;;17.86;40.40
59487;BME280;45298;54.918;73.504;2022-09-09T07:12:41;100336.44;;;17.69;40.07
59487;BME280;45298;54.918;73.504;2022-09-09T07:15:11;100331.59;;;17.63;40.66
59487;BME280;45298;54.918;73.504;2022-09-09T07:17:44;100326.34;;;17.51;39.75
59487;BME280;45298;54.918;73.504;2022-09-09T07:20:14;100349.41;;;17.64;41.14
59487;BME280;45298;54.918;73.504;2022-09-09T07:22:43;100332.13;;;17.57;40.48
59487;BME280;45298;54.918;73.504;2022-09-09T07:25:14;100327.69;;;17.67;41.04
59487;BME280;45298;54.918;73.504;2022-09-09T07:27:46;100330.84;;;17.82;39.20
59487;BME280;45298;54.918;73.504;2022-09-09T07:30:15;100317.13;;;18.06;37.55
59487;BME280;45298;54.918;73.504;2022-09-09T07:32:52;100320.28;;;18.31;37.14
59487;BME280;45298;54.918;73.504;2022-09-09T07:35:21;100284.81;;;18.57;40.15
59487;BME280;45298;54.918;73.504;2022-09-09T07:37:50;100310.38;;;19.20;39.29
59487;BME280;45298;54.918;73.504;2022-09-09T07:40:19;100308.47;;;19.50;38.83
59487;BME280;45298;54.918;73.504;2022-09-09T07:42:50;100297.16;;;19.37;38.00
59487;BME280;45298;54.918;73.504;2022-09-09T07:45:18;100279.28;;;18.98;37.45
59487;BME280;45298;54.918;73.504;2022-09-09T07:47:47;100278.16;;;18.81;36.06
59487;BME280;45298;54.918;73.504;2022-09-09T07:50:17;100264.59;;;18.72;37.72
59487;BME280;45298;54.918;73.504;2022-09-09T07:52:46;100283.94;;;19.06;38.05
59487;BME280;45298;54.918;73.504;2022-09-09T07:55:15;100276.91;;;19.32;36.66
59487;BME280;45298;54.918;73.504;2022-09-09T07:57:44;100243.06;;;19.40;36.16
59487;BME280;45298;54.918;73.504;2022-09-09T08:00:14;100270.94;;;19.76;35.03
59487;BME280;45298;54.918;73.504;2022-09-09T08:02:50;100258.53;;;19.93;36.10
59487;BME280;45298;54.918;73.504;2022-09-09T08:05:20;100270.66;;;20.07;35.19
59487;BME280;45298;54.918;73.504;2022-09-09T08:07:50;100262.34;;;20.01;35.09
59487;BME280;45298;54.918;73.504;2022-09-09T08:10:19;100248.28;;;20.07;34.24
59487;BME280;45298;54.918;73.504;2022-09-09T08:12:49;100244.50;;;20.18;34.25
59487;BME280;45298;54.918;73.504;2022-09-09T08:15:38;100247.03;;;20.19;36.67
59487;BME280;45298;54.918;73.504;2022-09-09T08:18:06;100194.13;;;20.10;36.17
59487;BME280;45298;54.918;73.504;2022-09-09T08:20:36;100249.88;;;20.54;34.12
59487;BME280;45298;54.918;73.504;2022-09-09T08:23:06;100254.53;;;20.70;34.97
59487;BME280;45298;54.918;73.504;2022-09-09T08:25:35;100232.47;;;20.66;34.43
59487;BME280;45298;54.918;73.504;2022-09-09T08:28:04;100197.41;;;20.22;33.78
59487;BME280;45298;54.918;73.504;2022-09-09T08:30:33;100225.88;;;20.06;34.17
59487;BME280;45298;54.918;73.504;2022-09-09T08:33:02;100229.13;;;19.82;34.36
59487;BME280;45298;54.918;73.504;2022-09-09T08:35:31;100214.47;;;19.39;34.14
59487;BME280;45298;54.918;73.504;2022-09-09T08:38:03;100224.31;;;19.20;34.42
59487;BME280;45298;54.918;73.504;2022-09-09T08:40:44;100219.53;;;19.14;35.92
59487;BME280;45298;54.918;73.504;2022-09-09T08:43:18;100215.34;;;19.01;35.51
59487;BME280;45298;54.918;73.504;2022-09-09T08:46:44;100213.19;;;19.05;35.90
59487;BME280;45298;54.918;73.504;2022-09-09T08:48:58;100214.28;;;19.22;34.95
59487;BME280;45298;54.918;73.504;2022-09-09T08:51:31;100193.84;;;19.57;35.70
59487;BME280;45298;54.918;73.504;2022-09-09T08:54:03;100198.81;;;19.80;35.98
59487;BME280;45298;54.918;73.504;2022-09-09T08:56:33;100195.13;;;19.81;35.91
59487;BME280;45298;54.918;73.504;2022-09-09T08:59:03;100190.34;;;19.75;35.38
59487;BME280;45298;54.918;73.504;2022-09-09T09:01:50;100184.78;;;19.58;35.97
59487;BME280;45298;54.918;73.504;2022-09-09T09:05:15;100175.34;;;19.26;35.79
59487;BME280;45298;54.918;73.504;2022-09-09T09:13:43;100177.13;;;19.08;35.45
59487;BME280;45298;54.918;73.504;2022-09-09T09:16:32;100151.31;;;19.15;34.48
59487;BME280;45298;54.918;73.504;2022-09-09T09:19:05;100154.97;;;19.24;33.25
59487;BME280;45298;54.918;73.504;2022-09-09T09:21:46;100160.22;;;19.25;34.27
59487;BME280;45298;54.918;73.504;2022-09-09T09:27:15;100131.25;;;19.09;34.07
59487;BME280;45298;54.918;73.504;2022-09-09T09:29:49;100136.34;;;19.12;33.20
59487;BME280;45298;54.918;73.504;2022-09-09T09:32:41;100149.59;;;19.24;33.09
59487;BME280;45298;54.918;73.504;2022-09-09T09:35:13;100132.50;;;19.15;33.66
59487;BME280;45298;54.918;73.504;2022-09-09T09:37:42;100155.78;;;19.34;34.32
59487;BME280;45298;54.918;73.504;2022-09-09T09:40:34;100118.66;;;19.38;32.55
59487;BME280;45298;54.918;73.504;2022-09-09T09:43:03;100111.53;;;19.46;32.89
59487;BME280;45298;54.918;73.504;2022-09-09T09:45:43;100133.69;;;19.58;32.61
59487;BME280;45298;54.918;73.504;2022-09-09T09:48:36;100129.59;;;19.54;33.26
59487;BME280;45298;54.918;73.504;2022-09-09T09:51:08;100119.28;;;19.50;32.65
59487;BME280;45298;54.918;73.504;2022-09-09T09:53:41;100099.19;;;19.26;32.82
59487;BME280;45298;54.918;73.504;2022-09-09T09:56:14;100118.31;;;19.23;33.56
59487;BME280;45298;54.918;73.504;2022-09-09T10:03:54;100114.53;;;18.78;32.76
59487;BME280;45298;54.918;73.504;2022-09-09T10:06:33;100109.31;;;18.76;32.33
59487;BME280;45298;54.918;73.504;2022-09-09T10:09:17;100105.38;;;18.70;32.99
59487;BME280;45298;54.918;73.504;2022-09-09T10:19:36;100090.09;;;18.71;33.91
59487;BME280;45298;54.918;73.504;2022-09-09T10:22:26;100049.38;;;18.38;33.93
59487;BME280;45298;54.918;73.504;2022-09-09T10:33:08;100068.63;;;18.23;35.89
59487;BME280;45298;54.918;73.504;2022-09-09T10:36:02;100080.72;;;18.37;34.54
59487;BME280;45298;54.918;73.504;2022-09-09T10:38:42;100082.13;;;18.41;34.72
59487;BME280;45298;54.918;73.504;2022-09-09T10:44:29;100082.97;;;18.52;35.59
59487;BME280;45298;54.918;73.504;2022-09-09T10:50:18;100083.88;;;18.70;35.54
59487;BME280;45298;54.918;73.504;2022-09-09T10:53:26;100085.69;;;18.80;35.01
59487;BME280;45298;54.918;73.504;2022-09-09T10:56:12;100076.53;;;18.72;35.12
59487;BME280;45298;54.918;73.504;2022-09-09T10:59:07;100085.00;;;18.68;35.06
59487;BME280;45298;54.918;73.504;2022-09-09T11:01:44;100075.44;;;18.55;35.38
59487;BME280;45298;54.918;73.504;2022-09-09T11:04:32;100080.94;;;18.54;36.28
59487;BME280;45298;54.918;73.504;2022-09-09T11:07:08;100068.69;;;18.41;36.38
59487;BME280;45298;54.918;73.504;2022-09-09T11:09:43;100075.22;;;18.39;36.09
59487;BME280;45298;54.918;73.504;2022-09-09T11:12:19;100082.50;;;18.56;36.08
59487;BME280;45298;54.918;73.504;2022-09-09T11:14:56;100086.19;;;18.55;35.65
59487;BME280;45298;54.918;73.504;2022-09-09T11:17:49;100059.22;;;18.47;35.87
59487;BME280;45298;54.918;73.504;2022-09-09T11:22:32;100050.16;;;18.48;35.98
59487;BME280;45298;54.918;73.504;2022-09-09T11:25:17;100083.06;;;18.60;35.68
59487;BME280;45298;54.918;73.504;2022-09-09T11:31:00;100096.97;;;18.83;35.94
59487;BME280;45298;54.918;73.504;2022-09-09T11:44:42;100084.94;;;18.87;35.57
59487;BME280;45298;54.918;73.504;2022-09-09T11:47:24;100090.34;;;18.78;35.69
59487;BME280;45298;54.918;73.504;2022-09-09T11:52:49;100102.06;;;18.49;35.31
59487;BME280;45298;54.918;73.504;2022-09-09T11:55:26;100104.06;;;18.37;35.02
59487;BME280;45298;54.918;73.504;2022-09-09T11:58:02;100088.09;;;18.16;35.50
59487;BME280;45298;54.918;73.504;2022-09-09T12:00:36;100098.56;;;18.19;36.09
59487;BME280;45298;54.918;73.504;2022-09-09T12:03:05;100084.59;;;18.05;36.95
59487;BME280;45298;54.918;73.504;2022-09-09T12:05:53;100089.53;;;18.00;36.75
59487;BME280;45298;54.918;73.504;2022-09-09T12:08:27;100096.88;;;17.98;36.35
59487;BME280;45298;54.918;73.504;2022-09-09T12:10:59;100090.66;;;17.88;36.71
59487;BME280;45298;54.918;73.504;2022-09-09T12:13:28;100098.56;;;17.79;36.99
59487;BME280;45298;54.918;73.504;2022-09-09T12:15:58;100088.69;;;17.70;37.15
59487;BME280;45298;54.918;73.504;2022-09-09T12:18:38;100100.69;;;17.66;36.93
59487;BME280;45298;54.918;73.504;2022-09-09T12:21:11;100116.06;;;17.64;35.83
59487;BME280;45298;54.918;73.504;2022-09-09T12:23:50;100091.34;;;17.50;35.54
59487;BME280;45298;54.918;73.504;2022-09-09T12:29:06;100110.94;;;17.41;36.09
59487;BME280;45298;54.918;73.504;2022-09-09T12:32:00;100114.19;;;17.35;37.18
59487;BME280;45298;54.918;73.504;2022-09-09T12:34:41;100109.91;;;17.22;37.24
59487;BME280;45298;54.918;73.504;2022-09-09T12:37:18;100107.34;;;17.11;36.91
59487;BME280;45298;54.918;73.504;2022-09-09T12:40:01;100102.72;;;16.92;37.21
59487;BME280;45298;54.918;73.504;2022-09-09T12:42:31;100094.78;;;16.81;37.62
59487;BME280;45298;54.918;73.504;2022-09-09T12:50:29;100116.97;;;16.61;37.20
59487;BME280;45298;54.918;73.504;2022-09-09T12:52:59;100114.53;;;16.58;37.99
59487;BME280;45298;54.918;73.504;2022-09-09T12:55:30;100116.06;;;16.51;37.79
59487;BME280;45298;54.918;73.504;2022-09-09T12:58:01;100115.75;;;16.44;37.39
59487;BME280;45298;54.918;73.504;2022-09-09T13:00:33;100119.53;;;16.42;37.85
59487;BME280;45298;54.918;73.504;2022-09-09T13:03:02;100107.38;;;16.38;37.99
59487;BME280;45298;54.918;73.504;2022-09-09T13:05:35;100112.88;;;16.36;38.44
59487;BME280;45298;54.918;73.504;2022-09-09T13:08:10;100108.03;;;16.30;38.80
59487;BME280;45298;54.918;73.504;2022-09-09T13:10:40;100108.94;;;16.19;39.06
59487;BME280;45298;54.918;73.504;2022-09-09T13:13:21;100113.97;;;16.12;39.08
59487;BME280;45298;54.918;73.504;2022-09-09T13:15:52;100110.00;;;16.07;38.90
59487;BME280;45298;54.918;73.504;2022-09-09T13:18:22;100120.38;;;16.00;38.83
59487;BME280;45298;54.918;73.504;2022-09-09T13:20:52;100112.75;;;15.95;39.61
59487;BME280;45298;54.918;73.504;2022-09-09T13:23:34;100108.88;;;15.88;38.93
59487;BME280;45298;54.918;73.504;2022-09-09T13:26:04;100110.22;;;15.82;39.37
59487;BME280;45298;54.918;73.504;2022-09-09T13:28:34;100112.41;;;15.77;40.03
59487;BME280;45298;54.918;73.504;2022-09-09T13:31:04;100125.81;;;15.66;40.01
59487;BME280;45298;54.918;73.504;2022-09-09T13:33:35;100121.13;;;15.58;40.23
59487;BME280;45298;54.918;73.504;2022-09-09T13:36:08;100110.44;;;15.47;40.36
59487;BME280;45298;54.918;73.504;2022-09-09T13:38:40;100125.97;;;15.41;40.77
59487;BME280;45298;54.918;73.504;2022-09-09T13:41:36;100124.91;;;15.33;40.97
59487;BME280;45298;54.918;73.504;2022-09-09T13:44:04;100119.75;;;15.20;41.24
59487;BME280;45298;54.918;73.504;2022-09-09T13:46:38;100120.47;;;15.10;41.31
59487;BME280;45298;54.918;73.504;2022-09-09T13:51:40;100127.25;;;14.92;42.28
59487;BME280;45298;54.918;73.504;2022-09-09T13:54:09;100123.50;;;14.83;42.28
59487;BME280;45298;54.918;73.504;2022-09-09T13:56:38;100127.00;;;14.72;42.59
59487;BME280;45298;54.918;73.504;2022-09-09T13:59:11;100133.28;;;14.60;43.10
59487;BME280;45298;54.918;73.504;2022-09-09T14:01:40;100133.50;;;14.45;42.94
59487;BME280;45298;54.918;73.504;2022-09-09T14:04:09;100135.28;;;14.33;43.51
59487;BME280;45298;54.918;73.504;2022-09-09T14:06:40;100136.34;;;14.19;43.53
59487;BME280;45298;54.918;73.504;2022-09-09T14:09:12;100141.53;;;14.10;44.05
59487;BME280;45298;54.918;73.504;2022-09-09T14:11:41;100146.81;;;13.98;44.02
59487;BME280;45298;54.918;73.504;2022-09-09T14:14:09;100150.91;;;13.91;44.49
59487;BME280;45298;54.918;73.504;2022-09-09T14:16:38;100149.13;;;13.79;44.85
59487;BME280;45298;54.918;73.504;2022-09-09T14:19:08;100152.50;;;13.69;44.57
59487;BME280;45298;54.918;73.504;2022-09-09T14:21:36;100163.00;;;13.59;44.54
59487;BME280;45298;54.918;73.504;2022-09-09T14:24:05;100167.16;;;13.51;45.07
59487;BME280;45298;54.918;73.504;2022-09-09T14:26:33;100162.50;;;13.41;45.67
59487;BME280;45298;54.918;73.504;2022-09-09T14:29:02;100164.94;;;13.32;45.33
59487;BME280;45298;54.918;73.504;2022-09-09T14:31:31;100162.00;;;13.23;45.57
59487;BME280;45298;54.918;73.504;2022-09-09T14:34:07;100159.75;;;13.17;45.50
59487;BME280;45298;54.918;73.504;2022-09-09T14:36:49;100169.66;;;13.15;45.60
59487;BME280;45298;54.918;73.504;2022-09-09T14:39:31;100171.91;;;13.08;46.14
59487;BME280;45298;54.918;73.504;2022-09-09T14:42:02;100173.28;;;13.01;46.58
59487;BME280;45298;54.918;73.504;2022-09-09T14:44:31;100170.34;;;12.93;46.00
59487;BME280;45298;54.918;73.504;2022-09-09T14:47:00;100168.94;;;12.87;46.21
59487;BME280;45298;54.918;73.504;2022-09-09T14:49:28;100165.84;;;12.80;46.42
59487;BME280;45298;54.918;73.504;2022-09-09T14:51:57;100166.38;;;12.73;47.11
59487;BME280;45298;54.918;73.504;2022-09-09T14:54:25;100170.41;;;12.65;47.54